TimeCDT,TemperatureF,Dew PointF,Humidity,Sea Level PressureIn,VisibilityMPH,Wind Direction,Wind SpeedMPH,Gust SpeedMPH,PrecipitationIn,Events,Conditions,WindDirDegrees,DateUTC
12:53 AM,50.0,39.0,66,30.25,10.0,North,9.2,-,0.00,,Overcast,360,2012-10-05 05:53:00
1:53 AM,46.0,37.0,71,30.25,10.0,NNE,8.1,-,N/A,,Scattered Clouds,20,2012-10-05 06:53:00
2:53 AM,44.6,37.4,76,30.25,10.0,North,8.1,-,N/A,,Partly Cloudy,360,2012-10-05 07:53:00
3:53 AM,45.0,34.0,65,30.27,10.0,North,11.5,-,N/A,,Partly Cloudy,10,2012-10-05 08:53:00
4:53 AM,45.0,35.1,68,30.27,10.0,NNE,5.8,-,N/A,,Mostly Cloudy,30,2012-10-05 09:53:00
5:53 AM,46.0,34.0,63,30.27,10.0,North,10.4,-,0.00,,Light Drizzle,10,2012-10-05 10:53:00
6:53 AM,46.0,35.1,66,30.28,10.0,North,8.1,-,0.00,,Overcast,10,2012-10-05 11:53:00
7:53 AM,45.0,32.0,60,30.27,10.0,North,8.1,-,N/A,,Overcast,360,2012-10-05 12:53:00
8:53 AM,46.0,32.0,58,30.27,10.0,NNE,11.5,-,N/A,,Overcast,20,2012-10-05 13:53:00
9:53 AM,46.0,32.0,58,30.27,10.0,NNE,15.0,-,N/A,,Overcast,30,2012-10-05 14:53:00
10:53 AM,46.9,30.9,54,30.27,10.0,NNE,12.7,-,N/A,,Overcast,30,2012-10-05 15:53:00
11:53 AM,46.9,30.0,52,30.29,10.0,North,11.5,-,N/A,,Overcast,10,2012-10-05 16:53:00
12:53 PM,48.9,28.9,46,30.30,10.0,North,12.7,19.6,N/A,,Overcast,360,2012-10-05 17:53:00
1:53 PM,51.1,30.0,44,30.29,10.0,North,19.6,25.3,N/A,,Overcast,10,2012-10-05 18:53:00
2:53 PM,48.0,32.0,54,30.27,10.0,North,13.8,-,N/A,,Overcast,10,2012-10-05 19:53:00
3:53 PM,48.0,30.0,50,30.27,10.0,NNE,18.4,-,N/A,,Mostly Cloudy,20,2012-10-05 20:53:00
4:53 PM,46.9,30.9,54,30.26,10.0,North,8.1,-,N/A,,Mostly Cloudy,360,2012-10-05 21:53:00
5:53 PM,46.0,30.9,56,30.27,10.0,North,9.2,-,N/A,,Mostly Cloudy,10,2012-10-05 22:53:00
6:53 PM,43.0,30.9,62,30.28,10.0,North,5.8,-,N/A,,Scattered Clouds,350,2012-10-05 23:53:00
7:53 PM,42.1,30.0,62,30.29,10.0,NNW,3.5,-,N/A,,Partly Cloudy,340,2012-10-06 00:53:00
8:53 PM,41.0,30.9,67,30.30,10.0,NW,3.5,-,N/A,,Scattered Clouds,320,2012-10-06 01:53:00
9:53 PM,41.0,30.0,65,30.28,10.0,NW,4.6,-,N/A,,Scattered Clouds,320,2012-10-06 02:53:00
10:53 PM,37.9,30.0,73,30.30,10.0,WSW,6.9,-,N/A,,Scattered Clouds,250,2012-10-06 03:53:00
11:53 PM,35.1,30.0,82,30.31,10.0,WSW,6.9,-,N/A,,Clear,240,2012-10-06 04:53:00